Time;durP1;ratioP1;P1;durP2;ratioP2;P2;SDS_P1;SDS_P2;PMS_P1;PMS_P2;Temp;Humidity;BMP_temperature;BMP_pressure;BME280_temperature;BME280_humidity;BME280_pressure;Samples;Min_cycle;Max_cycle;Signal;HPM_P1;HPM_P2
2022/05/28 00:01:00;;;;;;;0.00;0.00;;;;;;;;;;4989519;28;20240;-77
2022/05/28 00:03:29;;;;;;;0.00;0.00;;;;;;;;;;4997297;28;20193;-77
2022/05/28 00:05:56;;;;;;;0.00;0.00;;;;;;;;;;4995278;28;20212;-77
2022/05/28 00:08:24;;;;;;;0.10;0.10;;;;;;;;;;4992670;28;20209;-78
2022/05/28 00:10:53;;;;;;;0.00;0.00;;;;;;;;;;4994810;28;20222;-78
2022/05/28 00:13:21;;;;;;;0.10;0.10;;;;;;;;;;4991675;28;20276;-78
2022/05/28 00:15:48;;;;;;;0.00;0.00;;;;;;;;;;4980748;28;20327;-76
2022/05/28 00:18:16;;;;;;;0.10;0.10;;;;;;;;;;4985361;28;20244;-76
2022/05/28 00:20:43;;;;;;;0.10;0.10;;;;;;;;;;4982436;28;20229;-77
2022/05/28 00:23:13;;;;;;;0.10;0.10;;;;;;;;;;4984168;28;20281;-76
2022/05/28 00:25:40;;;;;;;0.00;0.00;;;;;;;;;;4978522;28;20214;-76
2022/05/28 00:28:08;;;;;;;0.00;0.00;;;;;;;;;;4981905;28;20248;-76
2022/05/28 00:30:38;;;;;;;0.07;0.07;;;;;;;;;;4982651;28;20256;-76
2022/05/28 00:33:05;;;;;;;0.00;0.00;;;;;;;;;;4982659;28;20205;-76
2022/05/28 00:35:33;;;;;;;0.00;0.00;;;;;;;;;;4983423;28;20264;-77
2022/05/28 00:38:00;;;;;;;0.10;0.10;;;;;;;;;;4985747;28;20208;-77
2022/05/28 00:40:28;;;;;;;0.00;0.00;;;;;;;;;;4986526;28;20213;-77
2022/05/28 00:42:58;;;;;;;0.00;0.00;;;;;;;;;;4987297;28;20235;-77
2022/05/28 00:45:26;;;;;;;0.00;0.00;;;;;;;;;;4984416;28;20201;-77
2022/05/28 00:47:55;;;;;;;0.00;0.00;;;;;;;;;;4985992;28;20205;-77
2022/05/28 00:50:23;;;;;;;0.00;0.00;;;;;;;;;;4986808;28;20224;-76
2022/05/28 00:52:50;;;;;;;0.00;0.00;;;;;;;;;;4986856;28;20205;-77
2022/05/28 00:55:19;;;;;;;0.10;0.10;;;;;;;;;;5002323;28;20273;-74
2022/05/28 00:57:47;;;;;;;0.10;0.10;;;;;;;;;;4985663;28;20224;-74
2022/05/28 01:00:16;;;;;;;0.00;0.00;;;;;;;;;;5002123;28;20217;-74
2022/05/28 01:02:47;;;;;;;0.10;0.10;;;;;;;;;;4986296;28;20202;-74
2022/05/28 01:05:20;;;;;;;0.10;0.10;;;;;;;;;;4985945;28;20201;-78
2022/05/28 01:07:54;;;;;;;0.00;0.00;;;;;;;;;;4985171;28;20214;-77
2022/05/28 01:10:25;;;;;;;0.00;0.00;;;;;;;;;;4987380;28;20229;-76
2022/05/28 01:12:55;;;;;;;0.00;0.00;;;;;;;;;;4986282;28;20284;-77
2022/05/28 01:15:24;;;;;;;0.10;0.10;;;;;;;;;;4984658;28;20209;-78
2022/05/28 01:17:54;;;;;;;0.00;0.00;;;;;;;;;;4984499;28;20220;-77
2022/05/28 01:20:24;;;;;;;0.00;0.00;;;;;;;;;;4985769;28;20232;-78
2022/05/28 01:23:02;;;;;;;0.10;0.10;;;;;;;;;;4986664;28;20232;-76
2022/05/28 01:25:34;;;;;;;0.10;0.10;;;;;;;;;;4985653;28;20200;-77
2022/05/28 01:28:06;;;;;;;0.03;0.03;;;;;;;;;;4985442;28;20220;-76
2022/05/28 01:30:33;;;;;;;0.00;0.00;;;;;;;;;;4984500;28;20221;-76
2022/05/28 01:33:03;;;;;;;0.03;0.03;;;;;;;;;;4985936;28;20209;-76
2022/05/28 01:35:31;;;;;;;0.10;0.10;;;;;;;;;;4982667;28;20204;-77
2022/05/28 01:37:59;;;;;;;0.10;0.10;;;;;;;;;;4984057;28;20201;-76
2022/05/28 01:40:27;;;;;;;0.10;0.10;;;;;;;;;;4986386;28;20217;-77
2022/05/28 01:42:55;;;;;;;0.00;0.00;;;;;;;;;;4987071;28;20212;-76
2022/05/28 01:45:25;;;;;;;0.10;0.10;;;;;;;;;;4984710;28;20275;-76
2022/05/28 01:47:54;;;;;;;0.10;0.10;;;;;;;;;;4985570;28;20235;-74
2022/05/28 01:50:24;;;;;;;0.10;0.10;;;;;;;;;;4986031;28;20935;-76
2022/05/28 01:52:52;;;;;;;0.00;0.00;;;;;;;;;;4984545;28;20217;-76
2022/05/28 01:55:20;;;;;;;0.00;0.00;;;;;;;;;;4983356;28;20209;-78
2022/05/28 01:57:48;;;;;;;0.10;0.10;;;;;;;;;;4990335;28;20256;-76
2022/05/28 02:00:15;;;;;;;0.00;0.00;;;;;;;;;;4984782;28;20226;-74
2022/05/28 02:02:44;;;;;;;0.00;0.00;;;;;;;;;;4984152;28;20201;-75
2022/05/28 02:05:11;;;;;;;0.10;0.10;;;;;;;;;;4985096;28;20236;-76
2022/05/28 02:07:39;;;;;;;0.00;0.00;;;;;;;;;;4981800;28;20205;-77
2022/05/28 02:10:08;;;;;;;0.00;0.00;;;;;;;;;;4985464;28;20225;-76
2022/05/28 02:12:38;;;;;;;0.00;0.00;;;;;;;;;;4984706;28;20193;-76
2022/05/28 02:15:11;;;;;;;0.10;0.10;;;;;;;;;;4985311;28;20205;-76
2022/05/28 02:17:42;;;;;;;0.10;0.10;;;;;;;;;;4979545;28;20295;-76
2022/05/28 02:20:14;;;;;;;0.10;0.10;;;;;;;;;;4982538;28;20608;-76
2022/05/28 02:22:45;;;;;;;0.10;0.10;;;;;;;;;;4985693;28;20287;-76
2022/05/28 02:25:14;;;;;;;0.00;0.00;;;;;;;;;;4984143;28;20225;-76
2022/05/28 02:27:43;;;;;;;0.00;0.00;;;;;;;;;;4983302;28;20220;-77
2022/05/28 02:30:11;;;;;;;0.10;0.10;;;;;;;;;;4984189;28;20229;-77
2022/05/28 02:32:39;;;;;;;0.10;0.10;;;;;;;;;;4985573;28;20206;-76
2022/05/28 02:35:07;;;;;;;0.10;0.10;;;;;;;;;;4986535;28;20271;-77
2022/05/28 02:37:36;;;;;;;0.10;0.10;;;;;;;;;;4984213;28;20197;-77
2022/05/28 02:40:04;;;;;;;0.10;0.10;;;;;;;;;;4983971;28;20221;-76
2022/05/28 02:42:32;;;;;;;0.10;0.10;;;;;;;;;;4983642;28;20197;-77
2022/05/28 02:45:00;;;;;;;0.10;0.10;;;;;;;;;;4985033;28;20240;-78
2022/05/28 02:47:27;;;;;;;0.10;0.10;;;;;;;;;;4987370;28;20205;-79
2022/05/28 02:49:55;;;;;;;0.10;0.10;;;;;;;;;;4986627;28;20236;-77
2022/05/28 02:52:23;;;;;;;0.10;0.10;;;;;;;;;;4983972;28;20205;-77
2022/05/28 02:54:52;;;;;;;0.10;0.10;;;;;;;;;;4984390;28;20198;-77
2022/05/28 02:57:19;;;;;;;0.10;0.10;;;;;;;;;;4984816;28;20264;-77
2022/05/28 02:59:46;;;;;;;0.00;0.00;;;;;;;;;;4983150;28;20232;-78
2022/05/28 03:02:14;;;;;;;0.10;0.10;;;;;;;;;;4985920;28;20292;-78
2022/05/28 03:04:41;;;;;;;0.10;0.10;;;;;;;;;;4987819;28;20215;-77
2022/05/28 03:07:09;;;;;;;0.10;0.10;;;;;;;;;;4984615;28;20198;-78
2022/05/28 03:09:36;;;;;;;0.10;0.10;;;;;;;;;;4985004;28;20221;-77
2022/05/28 03:12:05;;;;;;;0.10;0.10;;;;;;;;;;4985163;28;20205;-77
2022/05/28 03:14:33;;;;;;;0.10;0.10;;;;;;;;;;4985594;28;20224;-77
2022/05/28 03:17:00;;;;;;;0.10;0.10;;;;;;;;;;4985818;28;20284;-77
2022/05/28 03:19:27;;;;;;;0.10;0.10;;;;;;;;;;4984314;28;20221;-78
2022/05/28 03:21:54;;;;;;;0.10;0.10;;;;;;;;;;4984694;28;20285;-77
2022/05/28 03:24:22;;;;;;;0.10;0.10;;;;;;;;;;4995647;28;20209;-77
2022/05/28 03:26:49;;;;;;;0.10;0.10;;;;;;;;;;4981753;28;20224;-78
2022/05/28 03:29:18;;;;;;;0.10;0.10;;;;;;;;;;4984894;28;20696;-78
2022/05/28 03:31:46;;;;;;;0.00;0.00;;;;;;;;;;4983454;28;20664;-78
2022/05/28 03:34:13;;;;;;;0.10;0.10;;;;;;;;;;4984400;28;20202;-77
2022/05/28 03:36:40;;;;;;;0.10;0.10;;;;;;;;;;4980916;28;20205;-78
2022/05/28 03:39:07;;;;;;;0.10;0.10;;;;;;;;;;4984554;28;20207;-77
2022/05/28 03:41:35;;;;;;;0.10;0.10;;;;;;;;;;4984395;28;20225;-77
2022/05/28 03:44:02;;;;;;;0.10;0.10;;;;;;;;;;4982445;28;20209;-77
2022/05/28 03:46:32;;;;;;;0.10;0.10;;;;;;;;;;4981526;28;20205;-74
2022/05/28 03:49:00;;;;;;;0.10;0.10;;;;;;;;;;4986030;28;20740;-77
2022/05/28 03:51:28;;;;;;;0.10;0.10;;;;;;;;;;4992127;28;20271;-77
2022/05/28 03:53:56;;;;;;;0.10;0.10;;;;;;;;;;4984077;28;20630;-77
2022/05/28 03:56:24;;;;;;;0.10;0.10;;;;;;;;;;4985324;28;20256;-77
2022/05/28 03:58:51;;;;;;;0.10;0.10;;;;;;;;;;4982562;28;20300;-78
2022/05/28 04:01:18;;;;;;;0.10;0.10;;;;;;;;;;4983330;28;20235;-77
2022/05/28 04:03:47;;;;;;;0.10;0.10;;;;;;;;;;4985798;28;20213;-77
2022/05/28 04:06:14;;;;;;;0.10;0.10;;;;;;;;;;4983827;28;20213;-77
2022/05/28 04:08:41;;;;;;;0.10;0.10;;;;;;;;;;4979123;28;20205;-77
2022/05/28 04:11:09;;;;;;;0.10;0.10;;;;;;;;;;4982073;28;20352;-77
2022/05/28 04:13:36;;;;;;;0.10;0.10;;;;;;;;;;4982941;28;20240;-77
2022/05/28 04:16:04;;;;;;;0.10;0.10;;;;;;;;;;4984094;28;20229;-78
2022/05/28 04:18:31;;;;;;;0.10;0.10;;;;;;;;;;4984632;28;20204;-77
2022/05/28 04:21:00;;;;;;;0.10;0.10;;;;;;;;;;4983766;28;20248;-77
2022/05/28 04:23:27;;;;;;;0.10;0.10;;;;;;;;;;4982572;28;20200;-79
2022/05/28 04:25:54;;;;;;;0.10;0.10;;;;;;;;;;4982314;28;20213;-77
2022/05/28 04:28:22;;;;;;;0.10;0.10;;;;;;;;;;4982227;28;20302;-78
2022/05/28 04:30:49;;;;;;;0.10;0.10;;;;;;;;;;4983101;28;20228;-77
2022/05/28 04:33:16;;;;;;;0.10;0.10;;;;;;;;;;4982332;28;20290;-77
2022/05/28 04:35:44;;;;;;;0.00;0.00;;;;;;;;;;4983760;28;20742;-76
2022/05/28 04:38:13;;;;;;;0.10;0.10;;;;;;;;;;4999574;28;20288;-77
2022/05/28 04:40:40;;;;;;;0.10;0.10;;;;;;;;;;4982316;28;20300;-77
2022/05/28 04:43:07;;;;;;;0.10;0.10;;;;;;;;;;4980664;28;20205;-76
2022/05/28 04:45:35;;;;;;;0.10;0.10;;;;;;;;;;4983161;28;20221;-77
2022/05/28 04:48:02;;;;;;;0.10;0.10;;;;;;;;;;4982637;28;20232;-76
2022/05/28 04:50:29;;;;;;;0.10;0.10;;;;;;;;;;4982019;28;20229;-77
2022/05/28 04:52:57;;;;;;;0.10;0.10;;;;;;;;;;4982816;28;20226;-77
2022/05/28 04:55:25;;;;;;;0.10;0.10;;;;;;;;;;4981494;28;20216;-77
2022/05/28 04:57:53;;;;;;;0.10;0.10;;;;;;;;;;4986832;28;20260;-77
2022/05/28 05:00:22;;;;;;;0.10;0.10;;;;;;;;;;4981730;28;20308;-76
2022/05/28 05:02:50;;;;;;;0.10;0.10;;;;;;;;;;4983154;28;20280;-77
2022/05/28 05:05:17;;;;;;;0.00;0.00;;;;;;;;;;4998777;28;20205;-77
2022/05/28 05:07:45;;;;;;;0.00;0.00;;;;;;;;;;4981726;28;20209;-77
2022/05/28 05:10:12;;;;;;;0.10;0.10;;;;;;;;;;4982445;28;20233;-77
2022/05/28 05:12:41;;;;;;;0.10;0.10;;;;;;;;;;4982469;28;20201;-78
2022/05/28 05:15:09;;;;;;;0.03;0.03;;;;;;;;;;4982847;28;20216;-78
2022/05/28 05:17:36;;;;;;;0.10;0.10;;;;;;;;;;4981053;28;20300;-78
2022/05/28 05:20:03;;;;;;;0.10;0.10;;;;;;;;;;4984220;28;20251;-78
2022/05/28 05:22:30;;;;;;;0.10;0.10;;;;;;;;;;4983504;28;20211;-79
2022/05/28 05:24:57;;;;;;;0.10;0.10;;;;;;;;;;4986426;28;20201;-78
2022/05/28 05:27:25;;;;;;;0.10;0.10;;;;;;;;;;4986909;28;20205;-78
2022/05/28 05:29:57;;;;;;;0.10;0.10;;;;;;;;;;4985526;28;20257;-78
2022/05/28 05:32:25;;;;;;;0.10;0.10;;;;;;;;;;4986471;28;20650;-78
2022/05/28 05:34:52;;;;;;;0.10;0.10;;;;;;;;;;4985643;28;20229;-76
2022/05/28 05:37:20;;;;;;;0.10;0.10;;;;;;;;;;4998528;28;20273;-78
2022/05/28 05:39:48;;;;;;;0.10;0.10;;;;;;;;;;4989013;28;20228;-79
2022/05/28 05:42:17;;;;;;;0.00;0.00;;;;;;;;;;4991520;28;20279;-78
2022/05/28 05:44:44;;;;;;;0.10;0.10;;;;;;;;;;4990350;28;20260;-78
2022/05/28 05:47:13;;;;;;;0.00;0.00;;;;;;;;;;4985935;28;20292;-78
2022/05/28 05:49:40;;;;;;;0.10;0.10;;;;;;;;;;4981160;28;20233;-77
2022/05/28 05:52:08;;;;;;;0.10;0.10;;;;;;;;;;4987737;28;20337;-80
2022/05/28 05:54:36;;;;;;;0.10;0.10;;;;;;;;;;4986028;28;20299;-80
2022/05/28 05:57:04;;;;;;;0.10;0.10;;;;;;;;;;4987197;28;20201;-77
2022/05/28 05:59:32;;;;;;;0.10;0.10;;;;;;;;;;4985458;28;20300;-79
2022/05/28 06:01:59;;;;;;;0.00;0.00;;;;;;;;;;4987788;28;20284;-77
2022/05/28 06:04:28;;;;;;;0.00;0.00;;;;;;;;;;4986130;28;20224;-79
2022/05/28 06:06:55;;;;;;;0.00;0.00;;;;;;;;;;4985442;28;20205;-78
2022/05/28 06:09:23;;;;;;;0.00;0.00;;;;;;;;;;4985186;28;20274;-78
2022/05/28 06:11:50;;;;;;;0.10;0.10;;;;;;;;;;4985696;28;20284;-77
2022/05/28 06:14:18;;;;;;;0.10;0.10;;;;;;;;;;4986681;28;20225;-77
2022/05/28 06:16:45;;;;;;;0.00;0.00;;;;;;;;;;4985751;28;20316;-76
2022/05/28 06:19:13;;;;;;;0.10;0.10;;;;;;;;;;4987228;28;20197;-78
2022/05/28 06:21:46;;;;;;;0.00;0.00;;;;;;;;;;4987314;28;20205;-77
2022/05/28 06:24:13;;;;;;;0.10;0.10;;;;;;;;;;4984478;28;20206;-77
2022/05/28 06:26:41;;;;;;;0.10;0.10;;;;;;;;;;4984613;28;20237;-77
2022/05/28 06:29:08;;;;;;;0.10;0.10;;;;;;;;;;4983521;28;20755;-78
2022/05/28 06:31:35;;;;;;;0.10;0.10;;;;;;;;;;4987343;28;20225;-77
2022/05/28 06:34:03;;;;;;;0.10;0.10;;;;;;;;;;4984635;28;20201;-77
2022/05/28 06:36:30;;;;;;;0.10;0.10;;;;;;;;;;4985549;28;20237;-78
2022/05/28 06:38:59;;;;;;;0.10;0.10;;;;;;;;;;4986351;28;20256;-77
2022/05/28 06:41:27;;;;;;;0.10;0.10;;;;;;;;;;4985231;28;20308;-78
2022/05/28 06:43:54;;;;;;;0.10;0.10;;;;;;;;;;4985656;28;20207;-77
2022/05/28 06:46:22;;;;;;;0.00;0.00;;;;;;;;;;4986701;28;20284;-77
2022/05/28 06:48:49;;;;;;;0.00;0.00;;;;;;;;;;4986896;28;20202;-78
2022/05/28 06:51:16;;;;;;;0.10;0.10;;;;;;;;;;5000154;28;20301;-78
2022/05/28 06:53:45;;;;;;;0.00;0.00;;;;;;;;;;4989390;28;20218;-78
2022/05/28 06:56:14;;;;;;;0.00;0.00;;;;;;;;;;4986740;28;20201;-78
2022/05/28 06:58:43;;;;;;;0.00;0.00;;;;;;;;;;4983546;28;20232;-78
2022/05/28 07:01:14;;;;;;;0.00;0.00;;;;;;;;;;4986145;28;20221;-78
2022/05/28 07:03:43;;;;;;;0.00;0.00;;;;;;;;;;4984781;28;20208;-77
2022/05/28 07:06:11;;;;;;;0.00;0.00;;;;;;;;;;4984960;28;20201;-78
2022/05/28 07:08:38;;;;;;;0.10;0.10;;;;;;;;;;4983322;28;20220;-78
2022/05/28 07:11:06;;;;;;;0.10;0.10;;;;;;;;;;4987320;28;20236;-77
2022/05/28 07:13:36;;;;;;;0.00;0.00;;;;;;;;;;4984973;28;20211;-78
2022/05/28 07:16:05;;;;;;;0.10;0.10;;;;;;;;;;4984395;28;20356;-78
2022/05/28 07:18:33;;;;;;;0.10;0.10;;;;;;;;;;4986614;28;20265;-77
2022/05/28 07:21:00;;;;;;;0.10;0.10;;;;;;;;;;4982433;28;20275;-78
2022/05/28 07:23:28;;;;;;;0.10;0.10;;;;;;;;;;4983760;28;20289;-77
2022/05/28 07:26:00;;;;;;;0.03;0.03;;;;;;;;;;4991659;28;20204;-79
2022/05/28 07:28:28;;;;;;;0.07;0.07;;;;;;;;;;4989270;28;20193;-80
2022/05/28 07:30:58;;;;;;;0.07;0.07;;;;;;;;;;4984642;28;20221;-78
2022/05/28 07:33:25;;;;;;;0.00;0.00;;;;;;;;;;4988201;28;20288;-77
2022/05/28 07:35:53;;;;;;;0.00;0.00;;;;;;;;;;4983291;28;20754;-77
2022/05/28 07:38:21;;;;;;;0.00;0.00;;;;;;;;;;4985595;28;20659;-77
2022/05/28 07:40:49;;;;;;;0.00;0.00;;;;;;;;;;4984450;28;20245;-78
2022/05/28 07:43:16;;;;;;;0.10;0.10;;;;;;;;;;4987834;28;20229;-77
2022/05/28 07:45:44;;;;;;;0.00;0.00;;;;;;;;;;4993165;28;20274;-77
2022/05/28 07:48:13;;;;;;;0.10;0.10;;;;;;;;;;4996226;28;20201;-78
2022/05/28 07:50:40;;;;;;;0.00;0.00;;;;;;;;;;4992522;28;20392;-77
2022/05/28 07:53:08;;;;;;;0.00;0.00;;;;;;;;;;4989793;28;20205;-77
2022/05/28 07:55:35;;;;;;;0.00;0.00;;;;;;;;;;4990163;28;20212;-76
2022/05/28 07:58:07;;;;;;;0.00;0.00;;;;;;;;;;4988547;28;20233;-78
2022/05/28 08:00:34;;;;;;;0.00;0.00;;;;;;;;;;4995589;28;20248;-81
2022/05/28 08:03:01;;;;;;;0.10;0.10;;;;;;;;;;4990491;28;20300;-78
2022/05/28 08:05:30;;;;;;;0.00;0.00;;;;;;;;;;4993690;28;20285;-77
2022/05/28 08:07:57;;;;;;;0.00;0.00;;;;;;;;;;4989208;28;20292;-78
2022/05/28 08:10:25;;;;;;;0.00;0.00;;;;;;;;;;4995062;28;20824;-78
2022/05/28 08:12:52;;;;;;;0.00;0.00;;;;;;;;;;4989147;28;20209;-78
2022/05/28 08:15:20;;;;;;;0.00;0.00;;;;;;;;;;4988521;28;20200;-77
2022/05/28 08:17:47;;;;;;;0.00;0.00;;;;;;;;;;4984317;28;20200;-77
2022/05/28 08:20:14;;;;;;;0.00;0.00;;;;;;;;;;4991357;28;20319;-77
2022/05/28 08:25:28;;;;;;;0.00;0.00;;;;;;;;;;4986062;28;20315;-77
2022/05/28 08:27:55;;;;;;;0.00;0.00;;;;;;;;;;4982970;28;20209;-76
2022/05/28 08:30:23;;;;;;;0.00;0.00;;;;;;;;;;4983226;28;20240;-76
2022/05/28 08:32:50;;;;;;;0.00;0.00;;;;;;;;;;4989362;28;20212;-79
2022/05/28 08:35:17;;;;;;;0.00;0.00;;;;;;;;;;4992152;28;20320;-79
2022/05/28 08:37:46;;;;;;;0.00;0.00;;;;;;;;;;4981222;28;20218;-78
2022/05/28 08:40:15;;;;;;;0.00;0.00;;;;;;;;;;4977386;28;20247;-79
2022/05/28 08:42:43;;;;;;;0.00;0.00;;;;;;;;;;4983703;28;20181;-78
2022/05/28 08:45:12;;;;;;;0.00;0.00;;;;;;;;;;4980409;28;20293;-76
2022/05/28 08:47:43;;;;;;;0.00;0.00;;;;;;;;;;4983963;28;20240;-77
2022/05/28 08:50:11;;;;;;;0.00;0.00;;;;;;;;;;4980840;28;20233;-77
2022/05/28 08:52:42;;;;;;;0.00;0.00;;;;;;;;;;4985469;28;20221;-78
2022/05/28 08:55:13;;;;;;;0.00;0.00;;;;;;;;;;4985132;28;20216;-75
2022/05/28 08:57:46;;;;;;;0.00;0.00;;;;;;;;;;4981636;28;20209;-80
2022/05/28 09:00:14;;;;;;;0.00;0.00;;;;;;;;;;4981741;28;20220;-78
2022/05/28 09:02:44;;;;;;;0.00;0.00;;;;;;;;;;4985746;28;20268;-78
2022/05/28 09:05:18;;;;;;;0.00;0.00;;;;;;;;;;4986850;28;20228;-79
2022/05/28 09:07:46;;;;;;;0.00;0.00;;;;;;;;;;4980583;28;20192;-77
2022/05/28 09:10:15;;;;;;;0.00;0.00;;;;;;;;;;4996519;28;20336;-79
2022/05/28 09:12:44;;;;;;;0.00;0.00;;;;;;;;;;4995546;28;20236;-77
2022/05/28 09:15:12;;;;;;;0.00;0.00;;;;;;;;;;4993115;28;20273;-80
2022/05/28 09:17:42;;;;;;;0.00;0.00;;;;;;;;;;4988872;28;20205;-78
2022/05/28 09:20:11;;;;;;;0.00;0.00;;;;;;;;;;4995366;28;20684;-76
2022/05/28 09:22:38;;;;;;;0.00;0.00;;;;;;;;;;4997144;28;20216;-78
2022/05/28 09:25:07;;;;;;;0.00;0.00;;;;;;;;;;4994318;28;20622;-78
2022/05/28 09:27:40;;;;;;;0.00;0.00;;;;;;;;;;4992019;28;20233;-78
2022/05/28 09:30:16;;;;;;;0.00;0.00;;;;;;;;;;4991368;28;20628;-79
2022/05/28 09:32:52;;;;;;;0.00;0.00;;;;;;;;;;4984779;28;20257;-74
2022/05/28 09:35:23;;;;;;;0.00;0.00;;;;;;;;;;4995253;28;20209;-76
2022/05/28 09:37:55;;;;;;;0.00;0.00;;;;;;;;;;4997394;28;20225;-77
2022/05/28 09:40:26;;;;;;;0.00;0.00;;;;;;;;;;4995095;28;20228;-75
2022/05/28 09:43:08;;;;;;;0.00;0.00;;;;;;;;;;4989908;28;20263;-75
2022/05/28 09:45:38;;;;;;;0.00;0.00;;;;;;;;;;4997019;28;20571;-76
2022/05/28 09:48:06;;;;;;;0.00;0.00;;;;;;;;;;4987995;28;20208;-76
2022/05/28 09:50:40;;;;;;;0.00;0.00;;;;;;;;;;4989855;28;20291;-77
2022/05/28 09:55:58;;;;;;;0.00;0.00;;;;;;;;;;4988220;28;20227;-76
2022/05/28 09:58:30;;;;;;;0.00;0.00;;;;;;;;;;4989405;28;20209;-79
2022/05/28 10:01:08;;;;;;;0.00;0.00;;;;;;;;;;4980064;28;20240;-78
2022/05/28 10:06:21;;;;;;;0.00;0.00;;;;;;;;;;4828979;28;20266;-75
2022/05/28 10:08:48;;;;;;;0.00;0.00;;;;;;;;;;4706618;28;20294;-75
2022/05/28 10:11:18;;;;;;;0.00;0.00;;;;;;;;;;4711385;28;20274;-74
2022/05/28 10:13:48;;;;;;;0.00;0.00;;;;;;;;;;4713709;28;20206;-74
2022/05/28 10:16:17;;;;;;;0.00;0.00;;;;;;;;;;4715545;28;20201;-75
2022/05/28 10:18:49;;;;;;;0.00;0.00;;;;;;;;;;4716395;28;20277;-80
2022/05/28 10:21:18;;;;;;;0.00;0.00;;;;;;;;;;4717439;28;20248;-73
2022/05/28 10:23:47;;;;;;;0.00;0.00;;;;;;;;;;4722075;28;20263;-78
2022/05/28 10:26:17;;;;;;;0.00;0.00;;;;;;;;;;4716177;28;20322;-78
2022/05/28 10:28:54;;;;;;;0.00;0.00;;;;;;;;;;4719126;28;20231;-79
2022/05/28 10:31:24;;;;;;;0.00;0.00;;;;;;;;;;4709318;28;20217;-77
2022/05/28 10:33:52;;;;;;;0.00;0.00;;;;;;;;;;4706876;28;20327;-78
2022/05/28 10:36:24;;;;;;;0.00;0.00;;;;;;;;;;4703486;28;20213;-77
2022/05/28 10:38:51;;;;;;;0.00;0.00;;;;;;;;;;4715625;28;20295;-77
2022/05/28 10:41:21;;;;;;;0.00;0.00;;;;;;;;;;4707433;28;20657;-76
2022/05/28 10:43:50;;;;;;;0.00;0.00;;;;;;;;;;4724335;28;20380;-77
2022/05/28 10:46:23;;;;;;;0.00;0.00;;;;;;;;;;4699662;28;20213;-78
2022/05/28 10:48:57;;;;;;;0.00;0.00;;;;;;;;;;4709395;28;20221;-78
2022/05/28 10:51:31;;;;;;;0.00;0.00;;;;;;;;;;4703990;28;20406;-72
2022/05/28 10:54:07;;;;;;;0.00;0.00;;;;;;;;;;4702809;28;20220;-73
2022/05/28 10:56:41;;;;;;;0.00;0.00;;;;;;;;;;4705901;28;20205;-78
2022/05/28 10:59:16;;;;;;;0.10;0.10;;;;;;;;;;4708213;28;20374;-78
2022/05/28 11:01:50;;;;;;;0.00;0.00;;;;;;;;;;4737677;28;20235;-78
2022/05/28 11:04:27;;;;;;;0.00;0.00;;;;;;;;;;4710249;28;20216;-78
2022/05/28 11:07:07;;;;;;;0.03;0.03;;;;;;;;;;4702430;28;20696;-78
2022/05/28 11:09:41;;;;;;;0.00;0.00;;;;;;;;;;4723562;28;20205;-77
2022/05/28 11:12:15;;;;;;;0.00;0.00;;;;;;;;;;4709901;28;20240;-78
2022/05/28 11:14:57;;;;;;;0.00;0.00;;;;;;;;;;4951168;28;20197;-76
2022/05/28 11:17:30;;;;;;;0.00;0.00;;;;;;;;;;4968298;28;20213;-76
2022/05/28 11:20:06;;;;;;;0.00;0.00;;;;;;;;;;4978909;28;20240;-75
2022/05/28 11:22:52;;;;;;;0.00;0.00;;;;;;;;;;4992490;28;20201;-75
2022/05/28 11:25:24;;;;;;;0.00;0.00;;;;;;;;;;4982059;28;20275;-78
2022/05/28 11:27:57;;;;;;;0.00;0.00;;;;;;;;;;4991001;28;20221;-79
2022/05/28 11:30:27;;;;;;;0.00;0.00;;;;;;;;;;4979596;28;20311;-77
2022/05/28 11:33:00;;;;;;;0.00;0.00;;;;;;;;;;4986341;28;20275;-76
2022/05/28 11:35:42;;;;;;;0.00;0.00;;;;;;;;;;4981274;28;20197;-77
2022/05/28 11:38:14;;;;;;;0.00;0.00;;;;;;;;;;4984369;28;20284;-77
2022/05/28 11:40:46;;;;;;;0.00;0.00;;;;;;;;;;4980863;28;20221;-77
2022/05/28 11:43:16;;;;;;;0.00;0.00;;;;;;;;;;4980529;28;20248;-76
2022/05/28 11:45:46;;;;;;;0.00;0.00;;;;;;;;;;4978552;28;20263;-76
2022/05/28 11:48:18;;;;;;;0.00;0.00;;;;;;;;;;4983264;28;20188;-75
2022/05/28 11:53:35;;;;;;;0.00;0.00;;;;;;;;;;4983639;28;20215;-78
2022/05/28 11:56:05;;;;;;;0.00;0.00;;;;;;;;;;4974452;28;20213;-76
2022/05/28 11:58:34;;;;;;;0.00;0.00;;;;;;;;;;4982865;28;20263;-76
2022/05/28 12:01:03;;;;;;;0.00;0.00;;;;;;;;;;4980520;28;20225;-78
2022/05/28 12:03:32;;;;;;;0.00;0.00;;;;;;;;;;4983304;28;20201;-77
2022/05/28 12:06:07;;;;;;;0.00;0.00;;;;;;;;;;4992268;28;20213;-76
2022/05/28 12:08:38;;;;;;;0.00;0.00;;;;;;;;;;4982252;28;20279;-75
2022/05/28 12:11:07;;;;;;;0.00;0.00;;;;;;;;;;4994956;28;20226;-76
2022/05/28 12:13:36;;;;;;;0.00;0.00;;;;;;;;;;4981155;28;20228;-77
2022/05/28 12:16:05;;;;;;;0.00;0.00;;;;;;;;;;4999222;28;20638;-74
2022/05/28 12:18:35;;;;;;;0.00;0.00;;;;;;;;;;4977098;28;20292;-73
2022/05/28 12:21:02;;;;;;;0.10;0.10;;;;;;;;;;4988191;28;20229;-75
2022/05/28 12:23:34;;;;;;;0.00;0.00;;;;;;;;;;4989377;28;20206;-75
2022/05/28 12:26:03;;;;;;;0.00;0.00;;;;;;;;;;4980916;28;20324;-75
2022/05/28 12:28:43;;;;;;;0.00;0.00;;;;;;;;;;4983307;28;20206;-74
2022/05/28 12:31:22;;;;;;;0.00;0.00;;;;;;;;;;4980588;28;20320;-74
2022/05/28 12:33:52;;;;;;;0.00;0.00;;;;;;;;;;4988844;28;20216;-75
2022/05/28 12:36:21;;;;;;;0.00;0.00;;;;;;;;;;4986792;28;20292;-77
2022/05/28 12:38:52;;;;;;;0.00;0.00;;;;;;;;;;4987846;28;20248;-76
2022/05/28 12:41:21;;;;;;;0.00;0.00;;;;;;;;;;4988655;28;20233;-76
2022/05/28 12:44:00;;;;;;;0.00;0.00;;;;;;;;;;4989449;28;20264;-76
2022/05/28 12:46:38;;;;;;;0.00;0.00;;;;;;;;;;4984189;28;20233;-76
2022/05/28 12:49:08;;;;;;;0.00;0.00;;;;;;;;;;4992029;28;20205;-75
2022/05/28 12:51:40;;;;;;;0.00;0.00;;;;;;;;;;4987050;28;20307;-76
2022/05/28 12:54:07;;;;;;;0.00;0.00;;;;;;;;;;5000938;28;20220;-76
2022/05/28 12:56:42;;;;;;;0.00;0.00;;;;;;;;;;4987389;28;20197;-76
2022/05/28 12:59:11;;;;;;;0.00;0.00;;;;;;;;;;4981032;28;20708;-75
2022/05/28 13:01:40;;;;;;;0.00;0.00;;;;;;;;;;4987273;28;20324;-75
2022/05/28 13:04:13;;;;;;;0.00;0.00;;;;;;;;;;4995634;28;20667;-74
2022/05/28 13:06:45;;;;;;;0.00;0.00;;;;;;;;;;4997287;28;20215;-74
2022/05/28 13:09:16;;;;;;;0.00;0.00;;;;;;;;;;4990244;28;20322;-75
2022/05/28 13:11:48;;;;;;;0.00;0.00;;;;;;;;;;4985831;28;20211;-74
2022/05/28 13:14:29;;;;;;;0.00;0.00;;;;;;;;;;4994075;28;20307;-75
2022/05/28 13:17:10;;;;;;;0.00;0.00;;;;;;;;;;4984891;28;20208;-75
2022/05/28 13:19:49;;;;;;;0.00;0.00;;;;;;;;;;4989922;28;20221;-74
2022/05/28 13:22:23;;;;;;;0.00;0.00;;;;;;;;;;4989141;28;20197;-74
2022/05/28 13:25:14;;;;;;;0.00;0.00;;;;;;;;;;4986488;28;20212;-75
2022/05/28 13:27:53;;;;;;;0.00;0.00;;;;;;;;;;4976211;28;20214;-73
2022/05/28 13:30:21;;;;;;;0.00;0.00;;;;;;;;;;4983042;28;20244;-75
2022/05/28 13:32:50;;;;;;;0.00;0.00;;;;;;;;;;4987070;28;20213;-76
2022/05/28 13:35:20;;;;;;;0.00;0.00;;;;;;;;;;4989051;28;20209;-77
2022/05/28 13:37:53;;;;;;;0.00;0.00;;;;;;;;;;4991582;28;20201;-76
2022/05/28 13:40:22;;;;;;;0.00;0.00;;;;;;;;;;4981155;28;20221;-75
2022/05/28 13:42:49;;;;;;;0.00;0.00;;;;;;;;;;4991772;28;20203;-76
2022/05/28 13:45:22;;;;;;;0.00;0.00;;;;;;;;;;4978689;28;20229;-75
2022/05/28 13:47:49;;;;;;;0.00;0.00;;;;;;;;;;4991482;28;20685;-74
2022/05/28 13:50:16;;;;;;;0.00;0.00;;;;;;;;;;4992888;28;20216;-75
2022/05/28 13:52:47;;;;;;;0.00;0.00;;;;;;;;;;4988254;28;20313;-77
2022/05/28 13:55:21;;;;;;;0.00;0.00;;;;;;;;;;4993303;28;20196;-76
2022/05/28 13:57:48;;;;;;;0.00;0.00;;;;;;;;;;4999855;28;20216;-76
2022/05/28 14:00:18;;;;;;;0.00;0.00;;;;;;;;;;5000661;28;20221;-75
2022/05/28 14:02:53;;;;;;;0.00;0.00;;;;;;;;;;4990257;28;20197;-75
2022/05/28 14:05:25;;;;;;;0.00;0.00;;;;;;;;;;4986565;28;20216;-77
2022/05/28 14:07:54;;;;;;;0.00;0.00;;;;;;;;;;4984720;28;20205;-75
2022/05/28 14:10:23;;;;;;;0.00;0.00;;;;;;;;;;4996151;28;20220;-75
2022/05/28 14:12:50;;;;;;;0.00;0.00;;;;;;;;;;4992723;28;20653;-77
2022/05/28 14:15:19;;;;;;;0.00;0.00;;;;;;;;;;4989499;28;20207;-75
2022/05/28 14:17:47;;;;;;;0.00;0.00;;;;;;;;;;4980563;28;20210;-74
2022/05/28 14:20:19;;;;;;;0.00;0.00;;;;;;;;;;4983556;28;20232;-75
2022/05/28 14:22:47;;;;;;;0.00;0.00;;;;;;;;;;4983441;28;20283;-75
2022/05/28 14:25:22;;;;;;;0.00;0.00;;;;;;;;;;4992498;28;20214;-74
2022/05/28 14:27:49;;;;;;;0.00;0.00;;;;;;;;;;4988356;28;20230;-74
2022/05/28 14:30:18;;;;;;;0.00;0.00;;;;;;;;;;4996051;28;20217;-75
2022/05/28 14:32:46;;;;;;;0.00;0.00;;;;;;;;;;4993528;28;20220;-75
2022/05/28 14:35:14;;;;;;;0.00;0.00;;;;;;;;;;4993886;28;20206;-75
2022/05/28 14:37:42;;;;;;;0.00;0.00;;;;;;;;;;4995664;28;20219;-75
2022/05/28 14:40:20;;;;;;;0.00;0.00;;;;;;;;;;4995674;28;20302;-76
2022/05/28 14:42:49;;;;;;;0.00;0.00;;;;;;;;;;4984634;28;20331;-75
2022/05/28 14:45:21;;;;;;;0.00;0.00;;;;;;;;;;4987733;28;20201;-75
2022/05/28 14:47:50;;;;;;;0.00;0.00;;;;;;;;;;4991537;28;20193;-76
2022/05/28 14:50:26;;;;;;;0.00;0.00;;;;;;;;;;4992431;28;20232;-75
2022/05/28 14:52:53;;;;;;;0.00;0.00;;;;;;;;;;4995490;28;20212;-74
2022/05/28 14:55:28;;;;;;;0.00;0.00;;;;;;;;;;4991985;28;20205;-78
2022/05/28 14:58:02;;;;;;;0.00;0.00;;;;;;;;;;4985943;28;20216;-76
2022/05/28 15:00:34;;;;;;;0.00;0.00;;;;;;;;;;4984634;28;20243;-75
2022/05/28 15:03:08;;;;;;;0.00;0.00;;;;;;;;;;4987981;28;20189;-78
2022/05/28 15:05:36;;;;;;;0.00;0.00;;;;;;;;;;4983811;28;20729;-76
2022/05/28 15:08:04;;;;;;;0.00;0.00;;;;;;;;;;4983621;28;20205;-75